createdAt,value
2022-12-28T00:00:36.534Z,101471.28
2022-12-28T00:03:21.949Z,101456.53
2022-12-28T00:06:07.821Z,101448.72
2022-12-28T00:08:54.736Z,101441.06
2022-12-28T00:11:40.241Z,101449.47
2022-12-28T00:14:25.943Z,101440.16
2022-12-28T00:17:11.695Z,101430.56
2022-12-28T00:19:59.230Z,101432.97
2022-12-28T00:22:44.703Z,101425.31
2022-12-28T00:25:31.548Z,101415.72
2022-12-28T00:28:17.254Z,101397.72
2022-12-28T00:31:03.122Z,101411.56
2022-12-28T00:33:48.769Z,101404.66
2022-12-28T00:37:11.093Z,101403.53
2022-12-28T00:39:41.436Z,101389.78
2022-12-28T00:42:27.113Z,101377.59
2022-12-28T00:45:12.654Z,101384.56
2022-12-28T00:47:58.360Z,101378.34
2022-12-28T00:50:43.827Z,101374.09
2022-12-28T00:53:29.202Z,101367.81
2022-12-28T00:56:19.979Z,101359.41
2022-12-28T00:59:05.582Z,101366.28
2022-12-28T01:01:50.983Z,101344.63
2022-12-28T01:04:36.701Z,101342.16
2022-12-28T01:07:22.164Z,101351.53
2022-12-28T01:10:08.888Z,101342.22
2022-12-28T01:12:54.452Z,101332.72
2022-12-28T01:15:40.117Z,101338.75
2022-12-28T01:18:25.649Z,101338.91
2022-12-28T01:21:13.215Z,101338.06
2022-12-28T01:24:01.862Z,101343.16
2022-12-28T01:26:47.470Z,101329.44
2022-12-28T01:29:32.764Z,101330.28
2022-12-28T01:32:18.359Z,101322.56
2022-12-28T01:35:04.145Z,101336.38
2022-12-28T01:37:49.490Z,101313.19
2022-12-28T01:40:34.885Z,101308.94
2022-12-28T01:43:29.904Z,101293.28
2022-12-28T01:46:20.387Z,101294.34
2022-12-28T01:49:11.131Z,101295.19
2022-12-28T01:52:04.808Z,101298.69
2022-12-28T01:55:19.467Z,101285.75
2022-12-28T01:58:21.037Z,101278.13
2022-12-28T02:01:06.901Z,101264.91
2022-12-28T02:03:52.375Z,101262.19
2022-12-28T02:06:38.077Z,101267.53
2022-12-28T02:09:29.941Z,101264.91
2022-12-28T02:12:16.862Z,101258.03
2022-12-28T02:15:02.880Z,101241.59
2022-12-28T02:17:48.738Z,101232.94
2022-12-28T02:21:10.327Z,101219.09
2022-12-28T02:24:04.792Z,101259.69
2022-12-28T02:27:18.913Z,101199.06
2022-12-28T02:30:09.599Z,101206.59
2022-12-28T02:33:18.589Z,101197.09
2022-12-28T02:36:18.111Z,101203.19
2022-12-28T02:39:10.379Z,101193.66
2022-12-28T02:41:56.649Z,101172.31
2022-12-28T02:45:00.465Z,101173.09
2022-12-28T02:48:06.129Z,101176.50
2022-12-28T02:51:08.287Z,101167.78
2022-12-28T02:54:40.331Z,101173.06
2022-12-28T02:58:00.937Z,101163.69
2022-12-28T03:01:06.117Z,101159.94
2022-12-28T03:04:05.994Z,101155.47
2022-12-28T03:07:35.906Z,101156.56
2022-12-28T03:10:43.135Z,101156.50
2022-12-28T03:13:44.917Z,101149.44
2022-12-28T03:17:02.566Z,101137.34
2022-12-28T03:20:15.171Z,101145.81
2022-12-28T03:23:24.302Z,101138.03
2022-12-28T03:26:30.943Z,101131.88
2022-12-28T03:29:38.949Z,101138.19
2022-12-28T03:32:24.660Z,101109.34
2022-12-28T03:35:10.756Z,101130.00
2022-12-28T03:38:01.954Z,101127.41
2022-12-28T03:40:58.289Z,101106.69
2022-12-28T03:43:51.371Z,101111.00
2022-12-28T03:46:45.672Z,101095.31
2022-12-28T03:49:31.326Z,101093.63
2022-12-28T03:52:17.195Z,101082.34
2022-12-28T03:55:02.531Z,101074.44
2022-12-28T03:57:48.190Z,101069.16
2022-12-28T04:00:34.166Z,101063.97
2022-12-28T04:03:19.605Z,101072.81
2022-12-28T04:06:05.630Z,101051.91
2022-12-28T04:08:51.226Z,101045.22
2022-12-28T04:11:36.598Z,101046.16
2022-12-28T04:14:22.166Z,101045.50
2022-12-28T04:17:07.836Z,101030.81
2022-12-28T04:19:53.498Z,101034.34
2022-12-28T04:22:38.792Z,101025.69
2022-12-28T04:25:24.429Z,101020.75
2022-12-28T04:28:09.984Z,101019.22
2022-12-28T04:30:55.639Z,100998.44
2022-12-28T04:33:41.261Z,100988.03
2022-12-28T04:36:26.930Z,101005.28
2022-12-28T04:39:12.255Z,100993.97
2022-12-28T04:41:57.905Z,100963.00
2022-12-28T04:44:43.204Z,100950.31
2022-12-28T04:47:28.878Z,100953.03
2022-12-28T04:50:14.181Z,100952.81
2022-12-28T04:53:00.146Z,100948.53
2022-12-28T04:55:45.473Z,100952.78
2022-12-28T04:58:31.213Z,100932.94
2022-12-28T05:01:19.487Z,100944.66
2022-12-28T05:04:05.051Z,100924.28
2022-12-28T05:06:50.413Z,100925.00
2022-12-28T05:09:35.757Z,100907.59
2022-12-28T05:12:21.749Z,100901.69
2022-12-28T05:15:07.931Z,100910.44
2022-12-28T05:17:54.830Z,100919.81
2022-12-28T05:20:40.407Z,100894.75
2022-12-28T05:23:27.684Z,100898.16
2022-12-28T05:26:16.179Z,100897.97
2022-12-28T05:29:01.848Z,100871.50
2022-12-28T05:31:47.539Z,100882.63
2022-12-28T05:34:32.880Z,100878.09
2022-12-28T05:37:22.106Z,100872.22
2022-12-28T05:40:08.746Z,100857.47
2022-12-28T05:42:54.084Z,100877.28
2022-12-28T05:45:39.806Z,100836.50
2022-12-28T05:48:25.532Z,100862.63
2022-12-28T05:51:14.928Z,100835.69
2022-12-28T05:54:04.249Z,100837.34
2022-12-28T05:56:52.377Z,100825.25
2022-12-28T05:59:38.036Z,100810.38
2022-12-28T06:02:27.360Z,100841.47
2022-12-28T06:05:14.097Z,100808.63
2022-12-28T06:08:01.090Z,100811.09
2022-12-28T06:10:46.691Z,100811.00
2022-12-28T06:13:33.243Z,100804.22
2022-12-28T06:16:27.311Z,100818.94
2022-12-28T06:19:15.365Z,100804.81
2022-12-28T06:22:00.867Z,100787.88
2022-12-28T06:24:46.057Z,100792.78
2022-12-28T06:27:31.720Z,100788.63
2022-12-28T06:30:17.378Z,100783.41
2022-12-28T06:33:02.762Z,100791.38
2022-12-28T06:35:48.366Z,100769.66
2022-12-28T06:38:34.323Z,100774.00
2022-12-28T06:41:21.341Z,100759.81
2022-12-28T06:44:08.166Z,100784.06
2022-12-28T06:46:53.506Z,100779.91
2022-12-28T06:49:38.960Z,100766.63
2022-12-28T06:52:24.448Z,100750.50
2022-12-28T06:55:10.211Z,100750.28
2022-12-28T06:57:55.765Z,100751.03
2022-12-28T07:00:41.143Z,100740.78
2022-12-28T07:03:26.784Z,100745.72
2022-12-28T07:06:13.612Z,100747.69
2022-12-28T07:09:05.150Z,100743.94
2022-12-28T07:11:51.270Z,100749.09
2022-12-28T07:14:36.716Z,100731.84
2022-12-28T07:17:22.203Z,100732.69
2022-12-28T07:20:08.512Z,100707.63
2022-12-28T07:22:54.634Z,100738.41
2022-12-28T07:25:40.105Z,100732.28
2022-12-28T07:28:25.819Z,100736.63
2022-12-28T07:31:13.990Z,100736.44
2022-12-28T07:34:00.330Z,100731.13
2022-12-28T07:36:45.858Z,100713.03
2022-12-28T07:39:31.280Z,100716.50
2022-12-28T07:42:16.792Z,100723.97
2022-12-28T07:45:02.325Z,100722.09
2022-12-28T07:47:47.669Z,100724.91
2022-12-28T07:50:37.766Z,100720.56
2022-12-28T07:53:23.568Z,100706.56
2022-12-28T07:56:10.364Z,100713.25
2022-12-28T07:58:58.687Z,100679.13
2022-12-28T08:01:44.157Z,100702.78
2022-12-28T08:04:29.473Z,100688.84
2022-12-28T08:07:15.034Z,100687.84
2022-12-28T08:10:00.460Z,100674.03
2022-12-28T08:12:45.828Z,100686.78
2022-12-28T08:15:31.310Z,100677.28
2022-12-28T08:18:16.827Z,100677.31
2022-12-28T08:21:10.955Z,100689.25
2022-12-28T08:23:57.328Z,100699.56
2022-12-28T08:26:44.202Z,100694.63
2022-12-28T08:29:29.871Z,100698.63
2022-12-28T08:32:15.441Z,100683.09
2022-12-28T08:35:01.045Z,100682.97
2022-12-28T08:37:46.800Z,100677.81
2022-12-28T08:40:32.416Z,100673.34
2022-12-28T08:43:18.016Z,100676.84
2022-12-28T08:46:12.431Z,100693.06
2022-12-28T08:48:59.499Z,100693.69
2022-12-28T08:51:45.150Z,100687.66
2022-12-28T08:54:30.745Z,100664.25
2022-12-28T08:57:16.308Z,100686.41
2022-12-28T09:00:02.117Z,100687.25
2022-12-28T09:02:47.962Z,100689.50
2022-12-28T09:05:39.637Z,100690.19
2022-12-28T09:08:25.547Z,100683.09
2022-12-28T09:11:13.168Z,100689.19
2022-12-28T09:13:58.911Z,100685.81
2022-12-28T09:16:44.448Z,100702.66
2022-12-28T09:19:29.864Z,100683.97
2022-12-28T09:22:15.151Z,100701.69
2022-12-28T09:25:01.022Z,100711.22
2022-12-28T09:27:53.417Z,100703.34
2022-12-28T09:30:41.580Z,100688.63
2022-12-28T09:34:15.384Z,100693.31
2022-12-28T09:36:50.829Z,100707.84
2022-12-28T09:39:36.434Z,100681.22
2022-12-28T09:42:26.930Z,100685.50
2022-12-28T09:45:13.166Z,100702.59
2022-12-28T09:48:22.417Z,100689.44
2022-12-28T09:51:08.662Z,100691.94
2022-12-28T09:53:53.892Z,100691.84
2022-12-28T09:56:42.763Z,100693.56
2022-12-28T09:59:34.143Z,100679.72
2022-12-28T10:02:29.816Z,100677.91
2022-12-28T10:05:15.536Z,100691.75
2022-12-28T10:08:00.638Z,100679.16
2022-12-28T10:10:49.168Z,100674.16
2022-12-28T10:13:54.120Z,100689.66
2022-12-28T10:16:42.842Z,100679.22
2022-12-28T10:19:32.390Z,100690.34
2022-12-28T10:22:20.868Z,100698.53
2022-12-28T10:25:18.201Z,100679.25
2022-12-28T10:28:08.069Z,100668.97
2022-12-28T10:31:33.602Z,100676.81
2022-12-28T10:34:24.343Z,100680.28
2022-12-28T10:37:16.661Z,100676.59
2022-12-28T10:40:29.148Z,100661.22
2022-12-28T10:43:28.101Z,100657.03
2022-12-28T10:46:22.273Z,100645.78
2022-12-28T10:49:15.794Z,100644.47
2022-12-28T10:52:14.485Z,100660.72
2022-12-28T10:55:08.205Z,100653.41
2022-12-28T11:01:15.819Z,100665.88
2022-12-28T11:04:16.841Z,100652.03
2022-12-28T11:07:02.792Z,100659.72
2022-12-28T11:09:48.519Z,100635.50
2022-12-28T11:12:36.778Z,100639.53
2022-12-28T11:15:25.393Z,100634.06
2022-12-28T11:18:16.309Z,100635.00
2022-12-28T11:21:01.659Z,100632.78
2022-12-28T11:23:50.417Z,100630.06
2022-12-28T11:26:36.133Z,100618.59
2022-12-28T11:29:21.481Z,100616.19
2022-12-28T11:32:15.384Z,100617.03
2022-12-28T11:35:01.263Z,100623.69
2022-12-28T11:38:00.537Z,100617.53
2022-12-28T11:40:52.181Z,100624.03
2022-12-28T11:43:41.506Z,100616.25
2022-12-28T11:46:26.855Z,100624.22
2022-12-28T11:49:24.879Z,100620.66
2022-12-28T11:52:16.386Z,100625.00
2022-12-28T11:55:21.588Z,100625.72
2022-12-28T11:58:41.499Z,100612.91
2022-12-28T12:01:29.698Z,100612.38
2022-12-28T12:04:18.321Z,100609.63
2022-12-28T12:07:03.871Z,100610.38
2022-12-28T12:10:12.278Z,100603.50
2022-12-28T12:12:58.429Z,100607.16
2022-12-28T12:15:45.071Z,100610.63
2022-12-28T12:18:43.176Z,100593.53
2022-12-28T12:21:39.537Z,100599.31
2022-12-28T12:24:37.239Z,100601.38
2022-12-28T12:27:39.861Z,100599.44
2022-12-28T12:30:26.015Z,100598.00
2022-12-28T12:33:22.239Z,100585.50
2022-12-28T12:36:29.121Z,100602.44
2022-12-28T12:39:42.484Z,100589.50
2022-12-28T12:42:55.588Z,100602.06
2022-12-28T12:46:18.491Z,100598.00
2022-12-28T12:49:30.670Z,100604.41
2022-12-28T12:52:27.078Z,100601.28
2022-12-28T12:55:15.181Z,100604.28
2022-12-28T12:58:08.936Z,100606.09
2022-12-28T13:01:23.924Z,100599.91
2022-12-28T13:04:20.520Z,100586.47
2022-12-28T13:07:16.351Z,100584.03
2022-12-28T13:10:04.470Z,100591.63
2022-12-28T13:12:59.557Z,100592.25
2022-12-28T13:15:45.175Z,100568.94
2022-12-28T13:18:46.630Z,100591.81
2022-12-28T13:21:44.077Z,100582.41
2022-12-28T13:24:31.794Z,100576.72
2022-12-28T13:27:21.617Z,100565.84
2022-12-28T13:30:17.895Z,100575.00
2022-12-28T13:33:03.585Z,100579.59
2022-12-28T13:35:48.835Z,100553.75
2022-12-28T13:38:34.249Z,100557.72
2022-12-28T13:41:25.505Z,100575.28
2022-12-28T13:44:17.620Z,100572.81
2022-12-28T13:47:15.861Z,100557.50
2022-12-28T13:50:07.605Z,100565.84
2022-12-28T13:53:00.585Z,100561.69
2022-12-28T13:55:49.723Z,100573.69
2022-12-28T13:58:39.139Z,100560.97
2022-12-28T14:01:30.818Z,100573.97
2022-12-28T14:04:51.813Z,100569.06
2022-12-28T14:07:29.854Z,100563.13
2022-12-28T14:10:15.932Z,100559.72
2022-12-28T14:13:02.406Z,100566.63
2022-12-28T14:15:49.102Z,100563.97
2022-12-28T14:18:35.542Z,100556.16
2022-12-28T14:21:36.054Z,100556.19
2022-12-28T14:24:21.320Z,100572.59
2022-12-28T14:27:07.325Z,100557.81
2022-12-28T14:29:55.139Z,100551.03
2022-12-28T14:32:43.233Z,100557.03
2022-12-28T14:35:29.008Z,100560.59
2022-12-28T14:38:20.791Z,100561.41
2022-12-28T14:41:07.030Z,100561.28
2022-12-28T14:43:59.272Z,100556.97
2022-12-28T14:46:45.123Z,100543.13
2022-12-28T14:49:30.363Z,100554.25
2022-12-28T14:52:16.451Z,100558.16
2022-12-28T14:55:34.491Z,100553.91
2022-12-28T14:58:26.917Z,100543.44
2022-12-28T15:01:12.550Z,100539.94
2022-12-28T15:04:02.248Z,100558.53
2022-12-28T15:06:47.638Z,100552.66
2022-12-28T15:09:33.656Z,100546.34
2022-12-28T15:12:21.779Z,100556.19
2022-12-28T15:15:08.761Z,100539.94
2022-12-28T15:17:54.117Z,100546.47
2022-12-28T15:20:39.411Z,100541.53
2022-12-28T15:23:24.839Z,100539.78
2022-12-28T15:26:11.730Z,100529.53
2022-12-28T15:28:57.049Z,100512.16
2022-12-28T15:31:42.431Z,100512.50
2022-12-28T15:34:27.761Z,100518.19
2022-12-28T15:37:13.349Z,100528.13
2022-12-28T15:39:58.835Z,100517.41
2022-12-28T15:42:45.538Z,100537.78
2022-12-28T15:45:32.290Z,100529.22
2022-12-28T15:48:17.733Z,100514.34
2022-12-28T15:51:03.316Z,100507.59
2022-12-28T15:53:48.816Z,100510.97
2022-12-28T15:56:36.757Z,100528.28
2022-12-28T15:59:22.394Z,100513.75
2022-12-28T16:02:10.985Z,100526.41
2022-12-28T16:04:56.696Z,100501.28
2022-12-28T16:07:42.121Z,100505.75
2022-12-28T16:10:27.550Z,100501.97
2022-12-28T16:13:13.198Z,100500.34
2022-12-28T16:16:07.124Z,100494.13
2022-12-28T16:18:57.247Z,100485.00
2022-12-28T16:21:43.377Z,100487.34
2022-12-28T16:24:28.947Z,100508.34
2022-12-28T16:27:14.853Z,100500.06
2022-12-28T16:30:00.395Z,100495.72
2022-12-28T16:32:46.911Z,100501.75
2022-12-28T16:35:32.235Z,100501.50
2022-12-28T16:38:19.223Z,100503.19
2022-12-28T16:41:05.639Z,100492.16
2022-12-28T16:43:51.806Z,100510.19
2022-12-28T16:46:37.081Z,100494.06
2022-12-28T16:49:22.751Z,100481.97
2022-12-28T16:52:08.149Z,100505.38
2022-12-28T16:54:53.539Z,100507.41
2022-12-28T16:57:39.167Z,100489.00
2022-12-28T17:00:25.281Z,100503.13
2022-12-28T17:03:11.096Z,100489.69
2022-12-28T17:05:56.441Z,100503.31
2022-12-28T17:08:42.298Z,100470.81
2022-12-28T17:11:27.596Z,100492.44
2022-12-28T17:14:13.190Z,100485.25
2022-12-28T17:16:59.740Z,100485.59
2022-12-28T17:19:46.144Z,100469.84
2022-12-28T17:22:33.230Z,100462.34
2022-12-28T17:25:18.703Z,100456.13
2022-12-28T17:28:04.392Z,100458.16
2022-12-28T17:30:49.981Z,100439.09
2022-12-28T17:33:39.725Z,100430.13
2022-12-28T17:36:26.326Z,100448.28
2022-12-28T17:39:11.969Z,100422.69
2022-12-28T17:41:57.591Z,100434.22
2022-12-28T17:44:45.657Z,100417.47
2022-12-28T17:47:31.586Z,100415.44
2022-12-28T17:50:18.012Z,100421.84
2022-12-28T17:53:03.726Z,100395.50
2022-12-28T17:55:49.366Z,100409.34
2022-12-28T17:58:35.107Z,100410.41
2022-12-28T18:01:20.671Z,100389.47
2022-12-28T18:04:06.189Z,100394.69
2022-12-28T18:06:51.554Z,100381.63
2022-12-28T18:09:36.802Z,100360.66
2022-12-28T18:12:24.085Z,100380.84
2022-12-28T18:15:09.568Z,100373.97
2022-12-28T18:17:55.006Z,100370.66
2022-12-28T18:20:40.402Z,100361.19
2022-12-28T18:23:28.054Z,100370.94
2022-12-28T18:26:19.366Z,100365.00
2022-12-28T18:29:04.838Z,100333.47
2022-12-28T18:31:50.432Z,100342.72
2022-12-28T18:34:36.059Z,100324.63
2022-12-28T18:37:21.502Z,100309.84
2022-12-28T18:40:07.709Z,100324.47
2022-12-28T18:42:53.232Z,100299.81
2022-12-28T18:45:38.854Z,100308.41
2022-12-28T18:48:24.947Z,100325.31
2022-12-28T18:51:12.701Z,100328.13
2022-12-28T18:53:58.293Z,100315.19
2022-12-28T18:56:43.681Z,100306.50
2022-12-28T18:59:29.421Z,100314.00
2022-12-28T19:02:19.477Z,100317.38
2022-12-28T19:05:05.333Z,100316.09
2022-12-28T19:07:51.025Z,100307.78
2022-12-28T19:10:36.298Z,100303.41
2022-12-28T19:13:21.690Z,100309.97
2022-12-28T19:16:13.785Z,100304.09
2022-12-28T19:19:02.393Z,100296.91
2022-12-28T19:21:52.295Z,100286.25
2022-12-28T19:24:40.672Z,100284.41
2022-12-28T19:27:26.361Z,100286.91
2022-12-28T19:30:11.920Z,100281.19
2022-12-28T19:32:57.670Z,100275.59
2022-12-28T19:35:43.205Z,100276.00
2022-12-28T19:38:28.936Z,100261.97
2022-12-28T19:41:16.138Z,100258.81
2022-12-28T19:44:01.804Z,100250.03
2022-12-28T19:46:48.390Z,100252.31
2022-12-28T19:49:33.761Z,100238.56
2022-12-28T19:52:19.184Z,100248.19
2022-12-28T19:55:05.381Z,100250.97
2022-12-28T19:57:50.700Z,100251.16
2022-12-28T20:00:36.617Z,100222.81
2022-12-28T20:03:22.211Z,100220.59
2022-12-28T20:06:21.329Z,100251.63
2022-12-28T20:09:06.980Z,100229.16
2022-12-28T20:11:52.349Z,100228.25
2022-12-28T20:14:37.752Z,100227.22
2022-12-28T20:17:23.245Z,100221.31
2022-12-28T20:20:08.848Z,100204.75
2022-12-28T20:22:54.146Z,100217.53
2022-12-28T20:25:39.371Z,100227.84
2022-12-28T20:28:24.926Z,100215.25
2022-12-28T20:31:13.660Z,100233.78
2022-12-28T20:33:59.255Z,100193.25
2022-12-28T20:36:44.700Z,100209.25
2022-12-28T20:39:30.291Z,100207.09
2022-12-28T20:42:34.114Z,100183.06
2022-12-28T20:45:19.722Z,100192.69
2022-12-28T20:48:05.252Z,100150.34
2022-12-28T20:50:56.916Z,100195.06
2022-12-28T20:53:42.629Z,100165.84
2022-12-28T20:56:28.460Z,100170.66
2022-12-28T20:59:14.775Z,100180.53
2022-12-28T21:02:00.466Z,100165.88
2022-12-28T21:04:46.250Z,100163.31
2022-12-28T21:07:32.134Z,100155.72
2022-12-28T21:10:17.832Z,100140.81
2022-12-28T21:13:03.454Z,100133.75
2022-12-28T21:15:49.040Z,100134.56
2022-12-28T21:18:35.574Z,100120.22
2022-12-28T21:21:22.031Z,100126.81
2022-12-28T21:24:07.780Z,100113.06
2022-12-28T21:26:53.016Z,100107.94
2022-12-28T21:29:38.403Z,100112.56
2022-12-28T21:32:24.091Z,100086.81
2022-12-28T21:35:09.856Z,100097.59
2022-12-28T21:37:55.144Z,100096.81
2022-12-28T21:40:40.502Z,100080.97
2022-12-28T21:43:25.985Z,100065.56
2022-12-28T21:46:13.433Z,100082.97
2022-12-28T21:48:59.148Z,100073.69
2022-12-28T21:51:44.838Z,100040.50
2022-12-28T21:54:30.052Z,100068.75
2022-12-28T21:57:15.276Z,100058.97
2022-12-28T22:00:21.011Z,100071.38
2022-12-28T22:03:25.248Z,100043.81
2022-12-28T22:06:11.006Z,100057.56
2022-12-28T22:09:15.143Z,100045.06
2022-12-28T22:12:19.652Z,100054.50
2022-12-28T22:15:32.170Z,100014.88
2022-12-28T22:18:44.463Z,100034.75
2022-12-28T22:21:24.308Z,100025.84
2022-12-28T22:24:09.801Z,100032.53
2022-12-28T22:26:55.623Z,100015.66
2022-12-28T22:29:41.033Z,100012.78
2022-12-28T22:32:26.404Z,100023.91
2022-12-28T22:35:11.647Z,100019.84
2022-12-28T22:37:57.378Z,100005.50
2022-12-28T22:40:43.154Z,100016.25
2022-12-28T22:43:28.815Z,100006.28
2022-12-28T22:46:14.111Z,100017.19
2022-12-28T22:48:59.965Z,99997.66
2022-12-28T22:51:46.579Z,100005.41
2022-12-28T22:54:32.004Z,100012.25
2022-12-28T22:57:17.299Z,100000.28
2022-12-28T23:00:05.986Z,99994.28
2022-12-28T23:02:52.918Z,99995.53
2022-12-28T23:05:38.817Z,100006.50
2022-12-28T23:08:24.536Z,100006.78
2022-12-28T23:11:32.442Z,99994.69
2022-12-28T23:14:42.897Z,100001.13
2022-12-28T23:17:29.096Z,99983.06
2022-12-28T23:20:33.541Z,99976.31
2022-12-28T23:23:37.701Z,99983.00
2022-12-28T23:26:41.855Z,99966.19
2022-12-28T23:29:30.771Z,99973.78
2022-12-28T23:32:16.456Z,99960.66
2022-12-28T23:35:02.375Z,99983.63
2022-12-28T23:37:48.129Z,99972.63
2022-12-28T23:40:33.795Z,99965.66
2022-12-28T23:43:19.258Z,99971.28
2022-12-28T23:46:05.360Z,99974.75
2022-12-28T23:48:50.655Z,99973.88
2022-12-28T23:51:35.961Z,99969.81
2022-12-28T23:54:21.304Z,99954.44
2022-12-28T23:57:06.522Z,99953.84
2022-12-28T23:59:52.239Z,99964.56
